sensor_id;sensor_type;location;lat;lon;timestamp;temperature;humidity
3548;DHT22;1788;49.400;11.092;2023-02-15T00:02:11;3.50;65.90
3548;DHT22;1788;49.400;11.092;2023-02-15T00:04:38;3.50;65.90
3548;DHT22;1788;49.400;11.092;2023-02-15T00:07:05;3.50;65.70
3548;DHT22;1788;49.400;11.092;2023-02-15T00:09:32;3.50;65.70
3548;DHT22;1788;49.400;11.092;2023-02-15T00:11:59;3.50;65.90
3548;DHT22;1788;49.400;11.092;2023-02-15T00:14:26;3.40;65.30
3548;DHT22;1788;49.400;11.092;2023-02-15T00:16:52;3.50;65.40
3548;DHT22;1788;49.400;11.092;2023-02-15T00:19:19;3.40;65.30
3548;DHT22;1788;49.400;11.092;2023-02-15T00:21:46;3.40;65.20
3548;DHT22;1788;49.400;11.092;2023-02-15T00:24:14;3.30;65.40
3548;DHT22;1788;49.400;11.092;2023-02-15T00:26:40;3.30;65.40
3548;DHT22;1788;49.400;11.092;2023-02-15T00:29:07;3.30;65.70
3548;DHT22;1788;49.400;11.092;2023-02-15T00:31:34;3.30;65.70
3548;DHT22;1788;49.400;11.092;2023-02-15T00:34:02;3.40;65.70
3548;DHT22;1788;49.400;11.092;2023-02-15T00:36:28;3.30;65.60
3548;DHT22;1788;49.400;11.092;2023-02-15T00:38:54;3.30;65.40
3548;DHT22;1788;49.400;11.092;2023-02-15T00:41:21;3.30;65.40
3548;DHT22;1788;49.400;11.092;2023-02-15T00:43:48;3.40;65.70
3548;DHT22;1788;49.400;11.092;2023-02-15T00:46:15;3.40;65.70
3548;DHT22;1788;49.400;11.092;2023-02-15T00:48:42;3.40;65.70
3548;DHT22;1788;49.400;11.092;2023-02-15T00:51:09;3.50;65.60
3548;DHT22;1788;49.400;11.092;2023-02-15T00:53:35;3.50;65.60
3548;DHT22;1788;49.400;11.092;2023-02-15T00:56:03;3.60;65.50
3548;DHT22;1788;49.400;11.092;2023-02-15T00:58:29;3.60;66.20
3548;DHT22;1788;49.400;11.092;2023-02-15T01:01:02;3.70;65.40
3548;DHT22;1788;49.400;11.092;2023-02-15T01:03:23;3.70;65.30
3548;DHT22;1788;49.400;11.092;2023-02-15T01:05:50;3.70;65.30
3548;DHT22;1788;49.400;11.092;2023-02-15T01:08:16;3.70;65.10
3548;DHT22;1788;49.400;11.092;2023-02-15T01:10:43;3.60;64.90
3548;DHT22;1788;49.400;11.092;2023-02-15T01:13:10;3.60;64.80
3548;DHT22;1788;49.400;11.092;2023-02-15T01:15:37;3.50;64.90
3548;DHT22;1788;49.400;11.092;2023-02-15T01:18:04;3.50;64.80
3548;DHT22;1788;49.400;11.092;2023-02-15T01:20:33;3.40;65.10
3548;DHT22;1788;49.400;11.092;2023-02-15T01:22:58;3.40;65.10
3548;DHT22;1788;49.400;11.092;2023-02-15T01:25:25;3.40;65.30
3548;DHT22;1788;49.400;11.092;2023-02-15T01:27:51;3.40;65.50
3548;DHT22;1788;49.400;11.092;2023-02-15T01:30:18;3.40;65.50
3548;DHT22;1788;49.400;11.092;2023-02-15T01:32:44;3.50;65.50
3548;DHT22;1788;49.400;11.092;2023-02-15T01:35:11;3.50;65.30
3548;DHT22;1788;49.400;11.092;2023-02-15T01:37:38;3.50;65.20
3548;DHT22;1788;49.400;11.092;2023-02-15T01:40:05;3.50;65.20
3548;DHT22;1788;49.400;11.092;2023-02-15T01:42:31;3.50;65.10
3548;DHT22;1788;49.400;11.092;2023-02-15T01:44:58;3.50;65.20
3548;DHT22;1788;49.400;11.092;2023-02-15T01:49:56;3.50;65.20
3548;DHT22;1788;49.400;11.092;2023-02-15T01:52:18;3.50;65.20
3548;DHT22;1788;49.400;11.092;2023-02-15T01:54:45;3.60;65.10
3548;DHT22;1788;49.400;11.092;2023-02-15T01:57:12;3.50;64.80
3548;DHT22;1788;49.400;11.092;2023-02-15T01:59:39;3.50;65.10
3548;DHT22;1788;49.400;11.092;2023-02-15T02:02:05;3.50;65.00
3548;DHT22;1788;49.400;11.092;2023-02-15T02:07:00;3.60;65.00
3548;DHT22;1788;49.400;11.092;2023-02-15T02:09:27;3.50;64.00
3548;DHT22;1788;49.400;11.092;2023-02-15T02:11:53;3.50;64.60
3548;DHT22;1788;49.400;11.092;2023-02-15T02:14:21;3.40;65.70
3548;DHT22;1788;49.400;11.092;2023-02-15T02:24:15;3.30;64.80
3548;DHT22;1788;49.400;11.092;2023-02-15T02:33:57;3.20;64.70
3548;DHT22;1788;49.400;11.092;2023-02-15T02:43:47;3.00;64.30
3548;DHT22;1788;49.400;11.092;2023-02-15T02:48:36;2.80;64.80
3548;DHT22;1788;49.400;11.092;2023-02-15T02:51:03;2.80;64.80
3548;DHT22;1788;49.400;11.092;2023-02-15T02:53:30;2.70;65.00
3548;DHT22;1788;49.400;11.092;2023-02-15T02:55:59;2.70;64.90
3548;DHT22;1788;49.400;11.092;2023-02-15T03:00:53;2.70;65.20
3548;DHT22;1788;49.400;11.092;2023-02-15T03:03:20;2.80;65.30
3548;DHT22;1788;49.400;11.092;2023-02-15T03:05:45;2.80;65.10
3548;DHT22;1788;49.400;11.092;2023-02-15T03:08:12;2.80;65.10
3548;DHT22;1788;49.400;11.092;2023-02-15T03:10:38;2.80;65.20
3548;DHT22;1788;49.400;11.092;2023-02-15T03:13:05;2.80;65.20
3548;DHT22;1788;49.400;11.092;2023-02-15T03:15:34;2.80;65.30
3548;DHT22;1788;49.400;11.092;2023-02-15T03:17:59;2.80;65.30
3548;DHT22;1788;49.400;11.092;2023-02-15T03:22:54;2.90;65.20
3548;DHT22;1788;49.400;11.092;2023-02-15T03:25:20;2.90;65.10
3548;DHT22;1788;49.400;11.092;2023-02-15T03:27:47;2.90;65.00
3548;DHT22;1788;49.400;11.092;2023-02-15T03:30:13;2.90;64.90
3548;DHT22;1788;49.400;11.092;2023-02-15T03:32:39;2.90;65.00
3548;DHT22;1788;49.400;11.092;2023-02-15T03:35:06;2.90;64.90
3548;DHT22;1788;49.400;11.092;2023-02-15T03:37:35;2.90;65.00
3548;DHT22;1788;49.400;11.092;2023-02-15T03:40:00;2.90;65.00
3548;DHT22;1788;49.400;11.092;2023-02-15T03:42:28;2.90;64.90
3548;DHT22;1788;49.400;11.092;2023-02-15T03:47:22;3.00;65.80
3548;DHT22;1788;49.400;11.092;2023-02-15T03:52:14;3.00;65.50
3548;DHT22;1788;49.400;11.092;2023-02-15T03:54:41;3.00;65.00
3548;DHT22;1788;49.400;11.092;2023-02-15T03:59:35;3.10;65.00
3548;DHT22;1788;49.400;11.092;2023-02-15T04:04:36;3.20;64.90
3548;DHT22;1788;49.400;11.092;2023-02-15T04:06:56;3.20;64.60
3548;DHT22;1788;49.400;11.092;2023-02-15T04:09:22;3.20;64.60
3548;DHT22;1788;49.400;11.092;2023-02-15T04:11:49;3.20;65.40
3548;DHT22;1788;49.400;11.092;2023-02-15T04:14:16;3.20;64.70
3548;DHT22;1788;49.400;11.092;2023-02-15T04:16:43;3.20;64.60
3548;DHT22;1788;49.400;11.092;2023-02-15T04:19:09;3.20;64.70
3548;DHT22;1788;49.400;11.092;2023-02-15T04:21:36;3.20;64.60
3548;DHT22;1788;49.400;11.092;2023-02-15T04:24:03;3.20;65.00
3548;DHT22;1788;49.400;11.092;2023-02-15T04:26:30;3.20;64.50
3548;DHT22;1788;49.400;11.092;2023-02-15T04:28:57;3.20;64.30
3548;DHT22;1788;49.400;11.092;2023-02-15T04:31:23;3.20;64.10
3548;DHT22;1788;49.400;11.092;2023-02-15T04:33:50;3.20;64.10
3548;DHT22;1788;49.400;11.092;2023-02-15T04:36:17;3.10;64.10
3548;DHT22;1788;49.400;11.092;2023-02-15T04:38:44;3.10;64.10
3548;DHT22;1788;49.400;11.092;2023-02-15T04:41:10;3.10;64.10
3548;DHT22;1788;49.400;11.092;2023-02-15T04:43:37;3.00;64.00
3548;DHT22;1788;49.400;11.092;2023-02-15T04:46:04;3.00;63.90
3548;DHT22;1788;49.400;11.092;2023-02-15T04:48:31;2.90;64.10
3548;DHT22;1788;49.400;11.092;2023-02-15T04:50:58;2.90;64.10
3548;DHT22;1788;49.400;11.092;2023-02-15T04:53:24;2.80;64.10
3548;DHT22;1788;49.400;11.092;2023-02-15T04:55:51;2.80;64.10
3548;DHT22;1788;49.400;11.092;2023-02-15T04:58:17;2.70;64.10
3548;DHT22;1788;49.400;11.092;2023-02-15T05:00:45;2.70;64.40
3548;DHT22;1788;49.400;11.092;2023-02-15T05:03:11;2.70;64.30
3548;DHT22;1788;49.400;11.092;2023-02-15T05:05:40;2.70;64.00
3548;DHT22;1788;49.400;11.092;2023-02-15T05:08:06;2.70;64.40
3548;DHT22;1788;49.400;11.092;2023-02-15T05:10:34;2.70;64.50
3548;DHT22;1788;49.400;11.092;2023-02-15T05:13:01;2.70;64.50
3548;DHT22;1788;49.400;11.092;2023-02-15T05:15:27;2.70;64.30
3548;DHT22;1788;49.400;11.092;2023-02-15T05:17:54;2.70;64.10
3548;DHT22;1788;49.400;11.092;2023-02-15T05:20:21;2.70;64.10
3548;DHT22;1788;49.400;11.092;2023-02-15T05:22:52;2.60;63.70
3548;DHT22;1788;49.400;11.092;2023-02-15T05:25:15;2.60;64.00
3548;DHT22;1788;49.400;11.092;2023-02-15T05:27:42;2.60;64.10
3548;DHT22;1788;49.400;11.092;2023-02-15T05:30:09;2.60;64.00
3548;DHT22;1788;49.400;11.092;2023-02-15T05:32:37;2.60;64.10
3548;DHT22;1788;49.400;11.092;2023-02-15T05:35:05;2.60;64.80
3548;DHT22;1788;49.400;11.092;2023-02-15T05:37:32;2.60;64.30
3548;DHT22;1788;49.400;11.092;2023-02-15T05:39:58;2.50;64.00
3548;DHT22;1788;49.400;11.092;2023-02-15T05:42:25;2.50;63.80
3548;DHT22;1788;49.400;11.092;2023-02-15T05:44:52;2.40;64.00
3548;DHT22;1788;49.400;11.092;2023-02-15T05:47:21;2.30;64.10
3548;DHT22;1788;49.400;11.092;2023-02-15T05:49:47;2.30;64.00
3548;DHT22;1788;49.400;11.092;2023-02-15T05:52:15;2.30;64.10
3548;DHT22;1788;49.400;11.092;2023-02-15T05:54:41;2.30;64.20
3548;DHT22;1788;49.400;11.092;2023-02-15T05:57:08;2.20;64.20
3548;DHT22;1788;49.400;11.092;2023-02-15T05:59:35;2.20;64.10
3548;DHT22;1788;49.400;11.092;2023-02-15T06:02:01;2.20;64.20
3548;DHT22;1788;49.400;11.092;2023-02-15T06:04:29;2.10;64.20
3548;DHT22;1788;49.400;11.092;2023-02-15T06:06:56;2.10;64.20
3548;DHT22;1788;49.400;11.092;2023-02-15T06:09:22;2.00;64.20
3548;DHT22;1788;49.400;11.092;2023-02-15T06:11:49;2.00;64.40
3548;DHT22;1788;49.400;11.092;2023-02-15T06:14:15;2.00;64.50
3548;DHT22;1788;49.400;11.092;2023-02-15T06:16:42;2.00;64.60
3548;DHT22;1788;49.400;11.092;2023-02-15T06:19:09;1.90;64.50
3548;DHT22;1788;49.400;11.092;2023-02-15T06:21:35;1.90;64.60
3548;DHT22;1788;49.400;11.092;2023-02-15T06:24:02;2.00;64.80
3548;DHT22;1788;49.400;11.092;2023-02-15T06:26:29;1.90;64.80
3548;DHT22;1788;49.400;11.092;2023-02-15T06:28:55;2.00;64.80
3548;DHT22;1788;49.400;11.092;2023-02-15T06:31:22;1.90;65.20
3548;DHT22;1788;49.400;11.092;2023-02-15T06:33:49;1.90;64.70
3548;DHT22;1788;49.400;11.092;2023-02-15T06:36:18;1.90;64.80
3548;DHT22;1788;49.400;11.092;2023-02-15T06:38:45;1.90;65.00
3548;DHT22;1788;49.400;11.092;2023-02-15T06:41:12;1.90;65.00
3548;DHT22;1788;49.400;11.092;2023-02-15T06:43:38;1.90;65.10
3548;DHT22;1788;49.400;11.092;2023-02-15T06:46:05;1.90;65.00
3548;DHT22;1788;49.400;11.092;2023-02-15T06:48:32;2.00;65.90
3548;DHT22;1788;49.400;11.092;2023-02-15T06:50:59;1.90;64.90
3548;DHT22;1788;49.400;11.092;2023-02-15T06:53:26;1.90;64.80
3548;DHT22;1788;49.400;11.092;2023-02-15T06:55:52;1.90;64.70
3548;DHT22;1788;49.400;11.092;2023-02-15T06:58:19;1.90;64.80
3548;DHT22;1788;49.400;11.092;2023-02-15T07:00:45;1.90;65.10
3548;DHT22;1788;49.400;11.092;2023-02-15T07:03:13;2.00;65.10
3548;DHT22;1788;49.400;11.092;2023-02-15T07:05:39;2.00;65.00
3548;DHT22;1788;49.400;11.092;2023-02-15T07:08:07;2.00;64.80
3548;DHT22;1788;49.400;11.092;2023-02-15T07:10:33;2.00;64.80
3548;DHT22;1788;49.400;11.092;2023-02-15T07:13:01;2.00;64.80
3548;DHT22;1788;49.400;11.092;2023-02-15T07:15:28;2.00;64.80
3548;DHT22;1788;49.400;11.092;2023-02-15T07:17:56;2.00;65.00
3548;DHT22;1788;49.400;11.092;2023-02-15T07:20:22;2.00;64.90
3548;DHT22;1788;49.400;11.092;2023-02-15T07:22:49;2.00;65.00
3548;DHT22;1788;49.400;11.092;2023-02-15T07:25:15;2.00;65.70
3548;DHT22;1788;49.400;11.092;2023-02-15T07:27:42;2.00;65.10
3548;DHT22;1788;49.400;11.092;2023-02-15T07:30:11;2.10;65.20
3548;DHT22;1788;49.400;11.092;2023-02-15T07:32:36;2.10;65.20
3548;DHT22;1788;49.400;11.092;2023-02-15T07:35:03;2.10;65.30
3548;DHT22;1788;49.400;11.092;2023-02-15T07:37:30;2.10;65.30
3548;DHT22;1788;49.400;11.092;2023-02-15T07:39:57;2.20;65.40
3548;DHT22;1788;49.400;11.092;2023-02-15T07:42:24;2.40;65.60
3548;DHT22;1788;49.400;11.092;2023-02-15T07:44:51;2.30;65.50
3548;DHT22;1788;49.400;11.092;2023-02-15T07:47:20;2.50;65.40
3548;DHT22;1788;49.400;11.092;2023-02-15T07:49:46;2.50;65.40
3548;DHT22;1788;49.400;11.092;2023-02-15T07:52:13;2.50;65.10
3548;DHT22;1788;49.400;11.092;2023-02-15T07:54:40;2.50;64.90
3548;DHT22;1788;49.400;11.092;2023-02-15T07:57:07;2.50;64.80
3548;DHT22;1788;49.400;11.092;2023-02-15T07:59:34;2.50;64.80
3548;DHT22;1788;49.400;11.092;2023-02-15T08:02:00;2.50;64.80
3548;DHT22;1788;49.400;11.092;2023-02-15T08:04:27;2.50;64.80
3548;DHT22;1788;49.400;11.092;2023-02-15T08:06:54;2.50;64.80
3548;DHT22;1788;49.400;11.092;2023-02-15T08:09:21;2.40;64.80
3548;DHT22;1788;49.400;11.092;2023-02-15T08:11:47;2.40;64.80
3548;DHT22;1788;49.400;11.092;2023-02-15T08:14:15;2.40;64.80
3548;DHT22;1788;49.400;11.092;2023-02-15T08:16:42;2.40;64.90
3548;DHT22;1788;49.400;11.092;2023-02-15T08:21:35;2.50;65.10
3548;DHT22;1788;49.400;11.092;2023-02-15T08:24:02;2.60;65.30
3548;DHT22;1788;49.400;11.092;2023-02-15T08:26:30;2.70;65.00
3548;DHT22;1788;49.400;11.092;2023-02-15T08:28:56;2.60;64.90
3548;DHT22;1788;49.400;11.092;2023-02-15T08:31:23;2.60;65.60
3548;DHT22;1788;49.400;11.092;2023-02-15T08:33:50;2.60;64.80
3548;DHT22;1788;49.400;11.092;2023-02-15T08:36:17;2.60;64.80
3548;DHT22;1788;49.400;11.092;2023-02-15T08:38:43;2.60;64.60
3548;DHT22;1788;49.400;11.092;2023-02-15T08:43:37;2.70;65.20
3548;DHT22;1788;49.400;11.092;2023-02-15T08:46:03;2.70;65.00
3548;DHT22;1788;49.400;11.092;2023-02-15T08:48:30;2.70;64.80
3548;DHT22;1788;49.400;11.092;2023-02-15T08:50:56;2.80;64.70
3548;DHT22;1788;49.400;11.092;2023-02-15T08:53:23;2.80;64.60
3548;DHT22;1788;49.400;11.092;2023-02-15T08:58:18;2.80;64.70
3548;DHT22;1788;49.400;11.092;2023-02-15T09:00:44;2.80;64.70
3548;DHT22;1788;49.400;11.092;2023-02-15T09:03:11;2.80;64.60
3548;DHT22;1788;49.400;11.092;2023-02-15T09:05:38;2.90;64.80
3548;DHT22;1788;49.400;11.092;2023-02-15T09:08:05;2.90;64.70
3548;DHT22;1788;49.400;11.092;2023-02-15T09:10:32;2.90;64.10
3548;DHT22;1788;49.400;11.092;2023-02-15T09:12:59;2.90;64.50
3548;DHT22;1788;49.400;11.092;2023-02-15T09:15:25;2.90;64.60
3548;DHT22;1788;49.400;11.092;2023-02-15T09:17:52;2.90;64.60
3548;DHT22;1788;49.400;11.092;2023-02-15T09:20:19;2.90;64.60
3548;DHT22;1788;49.400;11.092;2023-02-15T09:22:46;3.00;64.60
3548;DHT22;1788;49.400;11.092;2023-02-15T09:25:13;3.00;64.50
3548;DHT22;1788;49.400;11.092;2023-02-15T09:27:39;3.00;64.40
3548;DHT22;1788;49.400;11.092;2023-02-15T09:30:06;3.10;64.50
3548;DHT22;1788;49.400;11.092;2023-02-15T09:32:32;3.10;64.40
3548;DHT22;1788;49.400;11.092;2023-02-15T09:35:00;3.20;64.40
3548;DHT22;1788;49.400;11.092;2023-02-15T09:37:26;3.20;64.40
3548;DHT22;1788;49.400;11.092;2023-02-15T09:39:53;3.20;64.40
3548;DHT22;1788;49.400;11.092;2023-02-15T09:57:03;3.50;64.00
3548;DHT22;1788;49.400;11.092;2023-02-15T10:16:38;3.50;63.80
3548;DHT22;1788;49.400;11.092;2023-02-15T10:19:04;3.50;64.10
3548;DHT22;1788;49.400;11.092;2023-02-15T10:26:21;3.80;64.30
3548;DHT22;1788;49.400;11.092;2023-02-15T10:28:49;3.90;64.30
3548;DHT22;1788;49.400;11.092;2023-02-15T10:33:43;4.00;63.80
3548;DHT22;1788;49.400;11.092;2023-02-15T10:41:09;4.40;64.50
3548;DHT22;1788;49.400;11.092;2023-02-15T11:00:41;4.60;62.80
3548;DHT22;1788;49.400;11.092;2023-02-15T11:03:10;4.60;62.90
3548;DHT22;1788;49.400;11.092;2023-02-15T11:07:58;4.70;63.10
3548;DHT22;1788;49.400;11.092;2023-02-15T11:10:28;4.80;63.30
3548;DHT22;1788;49.400;11.092;2023-02-15T11:12:51;4.90;63.30
3548;DHT22;1788;49.400;11.092;2023-02-15T11:17:48;5.10;62.90
3548;DHT22;1788;49.400;11.092;2023-02-15T11:22:39;5.30;62.40
3548;DHT22;1788;49.400;11.092;2023-02-15T11:27:33;5.40;62.10
3548;DHT22;1788;49.400;11.092;2023-02-15T11:30:01;5.50;62.10
3548;DHT22;1788;49.400;11.092;2023-02-15T11:34:56;5.70;62.50
3548;DHT22;1788;49.400;11.092;2023-02-15T11:37:23;5.90;62.20
3548;DHT22;1788;49.400;11.092;2023-02-15T11:39:47;5.90;62.20
3548;DHT22;1788;49.400;11.092;2023-02-15T11:42:15;6.00;62.00
3548;DHT22;1788;49.400;11.092;2023-02-15T11:49:34;6.30;61.60
3548;DHT22;1788;49.400;11.092;2023-02-15T11:52:02;6.40;61.40
3548;DHT22;1788;49.400;11.092;2023-02-15T11:54:29;6.40;61.20
3548;DHT22;1788;49.400;11.092;2023-02-15T11:59:24;6.40;61.10
3548;DHT22;1788;49.400;11.092;2023-02-15T12:01:47;6.50;60.90
3548;DHT22;1788;49.400;11.092;2023-02-15T12:06:43;6.40;60.60
3548;DHT22;1788;49.400;11.092;2023-02-15T12:11:36;6.40;60.60
3548;DHT22;1788;49.400;11.092;2023-02-15T12:14:03;6.50;59.90
3548;DHT22;1788;49.400;11.092;2023-02-15T12:16:29;6.50;60.60
3548;DHT22;1788;49.400;11.092;2023-02-15T12:18:55;6.60;60.80
3548;DHT22;1788;49.400;11.092;2023-02-15T12:23:52;7.20;61.70
3548;DHT22;1788;49.400;11.092;2023-02-15T12:26:22;7.60;61.40
3548;DHT22;1788;49.400;11.092;2023-02-15T12:28:42;8.00;61.00
3548;DHT22;1788;49.400;11.092;2023-02-15T12:33:39;8.70;60.00
3548;DHT22;1788;49.400;11.092;2023-02-15T12:36:04;9.00;59.30
3548;DHT22;1788;49.400;11.092;2023-02-15T12:38:29;9.40;58.80
3548;DHT22;1788;49.400;11.092;2023-02-15T12:45:50;11.10;56.20
3548;DHT22;1788;49.400;11.092;2023-02-15T12:48:18;11.70;55.30
3548;DHT22;1788;49.400;11.092;2023-02-15T12:50:44;12.10;54.40
3548;DHT22;1788;49.400;11.092;2023-02-15T12:55:36;13.10;53.20
3548;DHT22;1788;49.400;11.092;2023-02-15T13:00:30;13.80;51.80
3548;DHT22;1788;49.400;11.092;2023-02-15T13:02:56;13.30;51.60
3548;DHT22;1788;49.400;11.092;2023-02-15T13:07:50;12.20;52.60
3548;DHT22;1788;49.400;11.092;2023-02-15T13:12:43;11.40;53.30
3548;DHT22;1788;49.400;11.092;2023-02-15T13:15:22;11.00;53.50
3548;DHT22;1788;49.400;11.092;2023-02-15T13:17:36;10.70;53.60
3548;DHT22;1788;49.400;11.092;2023-02-15T13:24:57;10.20;53.90
3548;DHT22;1788;49.400;11.092;2023-02-15T13:27:24;9.90;54.70
3548;DHT22;1788;49.400;11.092;2023-02-15T13:29:50;9.70;54.70
3548;DHT22;1788;49.400;11.092;2023-02-15T13:34:42;9.30;54.60
3548;DHT22;1788;49.400;11.092;2023-02-15T14:06:34;13.20;51.00
3548;DHT22;1788;49.400;11.092;2023-02-15T14:28:34;17.80;45.40
3548;DHT22;1788;49.400;11.092;2023-02-15T14:30:58;18.30;45.10
3548;DHT22;1788;49.400;11.092;2023-02-15T14:33:29;18.30;44.80
3548;DHT22;1788;49.400;11.092;2023-02-15T14:35:52;18.20;44.60
3548;DHT22;1788;49.400;11.092;2023-02-15T14:38:32;18.20;44.60
3548;DHT22;1788;49.400;11.092;2023-02-15T14:45:40;18.70;44.20
3548;DHT22;1788;49.400;11.092;2023-02-15T14:48:09;18.90;44.00
3548;DHT22;1788;49.400;11.092;2023-02-15T14:57:57;17.90;43.70
3548;DHT22;1788;49.400;11.092;2023-02-15T15:02:50;17.90;43.80
3548;DHT22;1788;49.400;11.092;2023-02-15T15:05:18;17.70;43.60
3548;DHT22;1788;49.400;11.092;2023-02-15T15:12:38;17.20;43.80
3548;DHT22;1788;49.400;11.092;2023-02-15T15:15:04;16.90;43.50
3548;DHT22;1788;49.400;11.092;2023-02-15T15:22:26;15.20;44.20
3548;DHT22;1788;49.400;11.092;2023-02-15T15:24:53;14.60;44.30
3548;DHT22;1788;49.400;11.092;2023-02-15T15:29:46;13.10;45.00
3548;DHT22;1788;49.400;11.092;2023-02-15T15:32:14;12.00;46.00
3548;DHT22;1788;49.400;11.092;2023-02-15T15:49:23;10.00;47.50
3548;DHT22;1788;49.400;11.092;2023-02-15T15:51:49;9.70;48.60
3548;DHT22;1788;49.400;11.092;2023-02-15T15:56:47;8.90;49.30
3548;DHT22;1788;49.400;11.092;2023-02-15T16:01:39;8.60;49.50
3548;DHT22;1788;49.400;11.092;2023-02-15T16:04:04;8.40;49.80
3548;DHT22;1788;49.400;11.092;2023-02-15T16:06:33;8.30;50.00
3548;DHT22;1788;49.400;11.092;2023-02-15T16:09:09;8.00;50.10
3548;DHT22;1788;49.400;11.092;2023-02-15T16:11:25;7.80;50.30
3548;DHT22;1788;49.400;11.092;2023-02-15T16:13:51;7.70;50.50
3548;DHT22;1788;49.400;11.092;2023-02-15T16:18:45;7.20;51.50
3548;DHT22;1788;49.400;11.092;2023-02-15T16:28:32;6.70;51.60
3548;DHT22;1788;49.400;11.092;2023-02-15T16:33:33;6.50;52.10
3548;DHT22;1788;49.400;11.092;2023-02-15T16:35:54;6.30;52.20
3548;DHT22;1788;49.400;11.092;2023-02-15T16:45:41;5.90;52.80
3548;DHT22;1788;49.400;11.092;2023-02-15T16:48:12;5.70;53.20
3548;DHT22;1788;49.400;11.092;2023-02-15T16:50:36;5.70;53.20
3548;DHT22;1788;49.400;11.092;2023-02-15T16:53:03;5.50;53.50
3548;DHT22;1788;49.400;11.092;2023-02-15T16:55:32;5.50;53.50
3548;DHT22;1788;49.400;11.092;2023-02-15T16:57:56;5.40;53.60
3548;DHT22;1788;49.400;11.092;2023-02-15T17:00:22;5.30;53.80
3548;DHT22;1788;49.400;11.092;2023-02-15T17:05:17;5.20;54.20
3548;DHT22;1788;49.400;11.092;2023-02-15T17:07:48;5.20;54.20
3548;DHT22;1788;49.400;11.092;2023-02-15T17:15:03;5.00;54.50
3548;DHT22;1788;49.400;11.092;2023-02-15T17:17:31;5.00;54.60
3548;DHT22;1788;49.400;11.092;2023-02-15T17:19:57;4.90;54.70
3548;DHT22;1788;49.400;11.092;2023-02-15T17:22:24;4.90;54.70
3548;DHT22;1788;49.400;11.092;2023-02-15T17:24:57;4.90;55.00
3548;DHT22;1788;49.400;11.092;2023-02-15T17:32:13;4.80;55.10
3548;DHT22;1788;49.400;11.092;2023-02-15T17:37:09;4.70;55.20
3548;DHT22;1788;49.400;11.092;2023-02-15T17:39:32;4.70;55.10
3548;DHT22;1788;49.400;11.092;2023-02-15T17:41:59;4.60;55.20
3548;DHT22;1788;49.400;11.092;2023-02-15T17:44:26;4.60;55.30
3548;DHT22;1788;49.400;11.092;2023-02-15T17:46:54;4.50;56.00
3548;DHT22;1788;49.400;11.092;2023-02-15T17:51:48;4.50;56.00
3548;DHT22;1788;49.400;11.092;2023-02-15T17:54:14;4.50;55.70
3548;DHT22;1788;49.400;11.092;2023-02-15T17:56:42;4.50;55.80
3548;DHT22;1788;49.400;11.092;2023-02-15T17:59:08;4.50;55.80
3548;DHT22;1788;49.400;11.092;2023-02-15T18:01:36;4.40;55.90
3548;DHT22;1788;49.400;11.092;2023-02-15T18:04:02;4.40;55.80
3548;DHT22;1788;49.400;11.092;2023-02-15T18:06:30;4.30;56.60
3548;DHT22;1788;49.400;11.092;2023-02-15T18:08:56;4.30;56.10
3548;DHT22;1788;49.400;11.092;2023-02-15T18:11:24;4.30;56.20
3548;DHT22;1788;49.400;11.092;2023-02-15T18:13:50;4.30;56.30
3548;DHT22;1788;49.400;11.092;2023-02-15T18:16:19;4.30;56.40
3548;DHT22;1788;49.400;11.092;2023-02-15T18:18:43;4.30;56.50
3548;DHT22;1788;49.400;11.092;2023-02-15T18:21:11;4.30;56.70
3548;DHT22;1788;49.400;11.092;2023-02-15T18:23:38;4.20;57.20
3548;DHT22;1788;49.400;11.092;2023-02-15T18:26:05;4.20;56.90
3548;DHT22;1788;49.400;11.092;2023-02-15T18:28:33;4.20;56.80
3548;DHT22;1788;49.400;11.092;2023-02-15T18:30:59;4.20;57.00
3548;DHT22;1788;49.400;11.092;2023-02-15T18:35:52;4.10;57.20
3548;DHT22;1788;49.400;11.092;2023-02-15T18:38:19;4.10;57.30
3548;DHT22;1788;49.400;11.092;2023-02-15T18:40:46;4.10;57.40
3548;DHT22;1788;49.400;11.092;2023-02-15T18:43:13;4.00;57.70
3548;DHT22;1788;49.400;11.092;2023-02-15T18:45:40;4.00;57.60
3548;DHT22;1788;49.400;11.092;2023-02-15T18:48:07;4.00;57.80
3548;DHT22;1788;49.400;11.092;2023-02-15T18:50:34;4.00;57.80
3548;DHT22;1788;49.400;11.092;2023-02-15T18:53:02;4.10;58.00
3548;DHT22;1788;49.400;11.092;2023-02-15T18:55:28;4.00;57.90
3548;DHT22;1788;49.400;11.092;2023-02-15T18:57:56;4.10;58.10
3548;DHT22;1788;49.400;11.092;2023-02-15T19:00:22;4.10;58.20
3548;DHT22;1788;49.400;11.092;2023-02-15T19:02:48;4.10;58.20
3548;DHT22;1788;49.400;11.092;2023-02-15T19:05:15;4.10;58.30
3548;DHT22;1788;49.400;11.092;2023-02-15T19:07:42;4.10;58.60
3548;DHT22;1788;49.400;11.092;2023-02-15T19:10:10;4.10;58.30
3548;DHT22;1788;49.400;11.092;2023-02-15T19:12:37;4.10;58.10
3548;DHT22;1788;49.400;11.092;2023-02-15T19:15:03;4.10;58.40
3548;DHT22;1788;49.400;11.092;2023-02-15T19:17:30;4.10;58.40
3548;DHT22;1788;49.400;11.092;2023-02-15T19:19:58;4.10;58.50
3548;DHT22;1788;49.400;11.092;2023-02-15T19:22:27;4.10;58.60
3548;DHT22;1788;49.400;11.092;2023-02-15T19:24:52;4.10;58.70
3548;DHT22;1788;49.400;11.092;2023-02-15T19:27:19;4.00;58.70
3548;DHT22;1788;49.400;11.092;2023-02-15T19:29:45;4.00;58.80
3548;DHT22;1788;49.400;11.092;2023-02-15T19:32:11;4.00;59.00
3548;DHT22;1788;49.400;11.092;2023-02-15T19:34:38;3.90;59.00
3548;DHT22;1788;49.400;11.092;2023-02-15T19:37:05;3.90;59.00
3548;DHT22;1788;49.400;11.092;2023-02-15T19:39:36;4.00;59.30
3548;DHT22;1788;49.400;11.092;2023-02-15T19:41:59;3.90;59.10
3548;DHT22;1788;49.400;11.092;2023-02-15T19:44:26;4.00;59.50
3548;DHT22;1788;49.400;11.092;2023-02-15T19:46:53;3.90;59.30
3548;DHT22;1788;49.400;11.092;2023-02-15T19:49:19;4.00;59.40
3548;DHT22;1788;49.400;11.092;2023-02-15T19:51:46;3.90;59.30
3548;DHT22;1788;49.400;11.092;2023-02-15T19:56:39;3.80;59.40
3548;DHT22;1788;49.400;11.092;2023-02-15T19:59:09;3.80;59.60
3548;DHT22;1788;49.400;11.092;2023-02-15T20:01:32;3.80;59.60
3548;DHT22;1788;49.400;11.092;2023-02-15T20:04:00;3.70;59.70
3548;DHT22;1788;49.400;11.092;2023-02-15T20:06:26;3.70;59.90
3548;DHT22;1788;49.400;11.092;2023-02-15T20:08:53;3.60;59.90
3548;DHT22;1788;49.400;11.092;2023-02-15T20:11:20;3.60;60.00
3548;DHT22;1788;49.400;11.092;2023-02-15T20:13:46;3.60;60.10
3548;DHT22;1788;49.400;11.092;2023-02-15T20:16:13;3.50;60.10
3548;DHT22;1788;49.400;11.092;2023-02-15T20:18:40;3.50;60.40
3548;DHT22;1788;49.400;11.092;2023-02-15T20:21:08;3.50;60.40
3548;DHT22;1788;49.400;11.092;2023-02-15T20:23:34;3.50;60.50
3548;DHT22;1788;49.400;11.092;2023-02-15T20:26:09;3.40;60.50
3548;DHT22;1788;49.400;11.092;2023-02-15T20:28:29;3.40;60.50
3548;DHT22;1788;49.400;11.092;2023-02-15T20:30:54;3.40;60.50
3548;DHT22;1788;49.400;11.092;2023-02-15T20:33:21;3.40;60.60
3548;DHT22;1788;49.400;11.092;2023-02-15T20:35:48;3.30;60.90
3548;DHT22;1788;49.400;11.092;2023-02-15T20:38:17;3.30;60.90
3548;DHT22;1788;49.400;11.092;2023-02-15T20:40:42;3.30;61.00
3548;DHT22;1788;49.400;11.092;2023-02-15T20:43:10;3.30;61.40
3548;DHT22;1788;49.400;11.092;2023-02-15T20:45:36;3.30;61.40
3548;DHT22;1788;49.400;11.092;2023-02-15T20:48:04;3.30;61.50
3548;DHT22;1788;49.400;11.092;2023-02-15T20:50:31;3.30;61.40
3548;DHT22;1788;49.400;11.092;2023-02-15T20:52:58;3.40;61.50
3548;DHT22;1788;49.400;11.092;2023-02-15T20:55:26;3.40;61.40
3548;DHT22;1788;49.400;11.092;2023-02-15T20:57:51;3.40;61.40